Etusivu
METAR-TAF:

METAR-TAF

Lentoasemat :

Nancy, Ranska

Leveyspiiri: 48-41N, Pituuspiiri: 006-13E, korkeus merenpinnasta: 225 m

Tämänhetkinen sää

Tämä raportti tehtiin 25 minuuttia sitten, kello 07.00 UTC
Tuuli 2 kn eri suunnista
Lämpötila 6°C
Kosteus 75%
Ilmanpaine 1020 hPa
Näkyvyys 10 km tai enemmän
Muutamia pilviä 4100 ft:n korkeudessa
Hajonneita pilviä 8000 ft:n korkeudessa
Pilvistä 10000 ft:n korkeudessa

METAR: LFSN 190700Z AUTO VRB02KT 9999 FEW041 BKN080 OVC100 06/02 Q1020

Aika: 08:25 (07:25 UTC)


TAF: puuttuu

Säähavainnot ja -ennusteet yli 4000 lentoasemalta (METAR- ja TAF-raportit).

Käytössä olevat sääasemat on merkitty karttaan keltaisilla ja punaisilla pisteillä.

Aseta hiiri pisteen päälle nähdäksesi sääaseman nimen.

Klikkaa sitten nähdäksesi säähavainnot ja -ennusteet.

Kartan vaihtaminen: klikkaa mustalla rastilla varustettuja vihreitä pisteitä, niin voit zoomata sisään; viivalla varustettua vihreää pistettä, niin voit zoomata ulos tai vihreitä nuolia, niin pääset viereisille kartoille.


METAR-TAF: